Air Navigation Services of Czech Republic
Airport: LKPD Updated:  01.04.2020 01:30:26  UTC
 METAR LKPD 01.04. 01:30 ...
METAR LKPD 010130Z 21002KT CAVOK M05/M07 Q1025 RMK BLU=
 TAF LKPD 31.03. 23:00 ...
TAF LKPD 312300Z 0100/0200 VRB02KT CAVOK      BECMG 0110/0112 27008KT      BECMG 0116/0119 VRB02KT=